createdAt,value
2018-11-02T00:01:53.750Z,27.00
2018-11-02T00:04:22.607Z,27.93
2018-11-02T00:06:52.041Z,25.67
2018-11-02T00:09:20.885Z,24.47
2018-11-02T00:11:49.809Z,25.30
2018-11-02T00:14:18.644Z,21.97
2018-11-02T00:16:47.618Z,22.47
2018-11-02T00:19:20.935Z,24.80
2018-11-02T00:21:49.814Z,23.20
2018-11-02T00:24:18.621Z,22.40
2018-11-02T00:26:47.783Z,18.40
2018-11-02T00:29:21.027Z,20.67
2018-11-02T00:31:50.013Z,26.67
2018-11-02T00:34:18.807Z,20.23
2018-11-02T00:36:47.617Z,18.80
2018-11-02T00:39:16.886Z,21.10
2018-11-02T00:41:45.759Z,18.27
2018-11-02T00:44:15.021Z,22.57
2018-11-02T00:46:43.821Z,19.03
2018-11-02T00:49:12.838Z,17.30
2018-11-02T00:51:41.636Z,18.50
2018-11-02T00:54:10.608Z,19.27
2018-11-02T00:56:39.525Z,17.80
2018-11-02T00:59:08.397Z,19.43
2018-11-02T01:01:37.236Z,18.17
2018-11-02T01:04:06.269Z,18.73
2018-11-02T01:06:35.125Z,19.93
2018-11-02T01:09:05.220Z,19.30
2018-11-02T01:11:34.027Z,17.77
2018-11-02T01:14:03.148Z,17.83
2018-11-02T01:16:31.980Z,18.70
2018-11-02T01:19:00.904Z,15.73
2018-11-02T01:21:29.750Z,16.87
2018-11-02T01:23:58.906Z,17.67
2018-11-02T01:26:27.808Z,13.50
2018-11-02T01:28:56.747Z,16.53
2018-11-02T01:31:25.619Z,12.90
2018-11-02T01:33:54.401Z,13.30
2018-11-02T01:36:23.376Z,13.07
2018-11-02T01:38:52.179Z,13.07
2018-11-02T01:41:21.077Z,13.17
2018-11-02T01:43:49.988Z,10.47
2018-11-02T01:46:18.828Z,14.03
2018-11-02T01:48:47.992Z,14.40
2018-11-02T01:51:17.175Z,12.43
2018-11-02T01:53:46.027Z,13.93
2018-11-02T01:56:14.962Z,13.40
2018-11-02T01:58:44.705Z,12.50
2018-11-02T02:01:13.522Z,12.67
2018-11-02T02:03:42.338Z,11.83
2018-11-02T02:06:11.227Z,12.90
2018-11-02T02:08:40.228Z,11.63
2018-11-02T02:11:09.122Z,11.83
2018-11-02T02:13:38.018Z,13.37
2018-11-02T02:16:06.888Z,11.10
2018-11-02T02:18:35.747Z,14.77
2018-11-02T02:21:05.076Z,10.97
2018-11-02T02:23:33.889Z,12.30
2018-11-02T02:26:02.811Z,15.93
2018-11-02T02:28:32.017Z,10.80
2018-11-02T02:31:00.859Z,11.40
2018-11-02T02:33:30.082Z,12.77
2018-11-02T02:35:58.933Z,11.67
2018-11-02T02:38:27.789Z,10.33
2018-11-02T02:40:56.591Z,12.30
2018-11-02T02:43:25.457Z,12.97
2018-11-02T02:45:54.314Z,14.10
2018-11-02T02:48:23.171Z,12.83
2018-11-02T02:50:52.031Z,13.63
2018-11-02T02:53:20.914Z,12.20
2018-11-02T02:55:49.743Z,11.87
2018-11-02T02:58:18.969Z,13.53
2018-11-02T03:00:47.792Z,12.97
2018-11-02T03:03:16.656Z,11.70
2018-11-02T03:05:45.517Z,12.07
2018-11-02T03:08:14.408Z,11.30
2018-11-02T03:10:43.444Z,13.93
2018-11-02T03:13:12.485Z,14.17
2018-11-02T03:15:41.296Z,11.37
2018-11-02T03:18:10.219Z,13.53
2018-11-02T03:20:39.083Z,14.40
2018-11-02T03:23:07.988Z,14.30
2018-11-02T03:25:36.789Z,13.17
2018-11-02T03:28:05.760Z,14.73
2018-11-02T03:30:34.914Z,14.43
2018-11-02T03:33:03.769Z,14.80
2018-11-02T03:35:32.716Z,14.00
2018-11-02T03:38:01.560Z,14.20
2018-11-02T03:40:30.474Z,14.90
2018-11-02T03:42:59.349Z,15.37
2018-11-02T03:45:28.229Z,16.90
2018-11-02T03:47:57.123Z,14.23
2018-11-02T03:50:26.619Z,15.77
2018-11-02T03:52:55.472Z,17.27
2018-11-02T03:55:24.963Z,17.40
2018-11-02T03:57:53.750Z,18.47
2018-11-02T04:00:22.651Z,15.97
2018-11-02T04:02:51.485Z,19.03
2018-11-02T04:05:20.346Z,18.03
2018-11-02T04:07:49.203Z,19.73
2018-11-02T04:10:18.088Z,17.50
2018-11-02T04:12:46.993Z,17.47
2018-11-02T04:15:15.862Z,15.40
2018-11-02T04:17:44.758Z,19.47
2018-11-02T04:20:13.646Z,19.77
2018-11-02T04:22:42.450Z,18.57
2018-11-02T04:25:11.656Z,19.23
2018-11-02T04:27:40.994Z,16.90
2018-11-02T04:30:10.195Z,17.50
2018-11-02T04:32:39.048Z,16.03
2018-11-02T04:35:08.720Z,19.47
2018-11-02T04:37:37.651Z,17.77
2018-11-02T04:40:07.213Z,18.37
2018-11-02T04:42:36.064Z,17.20
2018-11-02T04:45:05.138Z,16.90
2018-11-02T04:47:34.314Z,16.40
2018-11-02T04:50:03.373Z,17.97
2018-11-02T04:52:32.287Z,17.27
2018-11-02T04:55:01.086Z,16.87
2018-11-02T04:57:29.940Z,17.37
2018-11-02T04:59:58.764Z,18.40
2018-11-02T05:02:28.664Z,17.87
2018-11-02T05:04:58.090Z,17.30
2018-11-02T05:07:26.932Z,16.27
2018-11-02T05:09:55.810Z,16.87
2018-11-02T05:12:24.943Z,15.27
2018-11-02T05:14:53.802Z,20.37
2018-11-02T05:17:22.645Z,15.77
2018-11-02T05:19:51.553Z,16.03
2018-11-02T05:22:20.432Z,16.63
2018-11-02T05:24:49.249Z,15.20
2018-11-02T05:27:18.222Z,16.23
2018-11-02T05:29:53.148Z,17.20
2018-11-02T05:32:21.992Z,15.63
2018-11-02T05:34:50.930Z,14.53
2018-11-02T05:37:19.836Z,16.17
2018-11-02T05:39:48.866Z,15.23
2018-11-02T05:42:17.814Z,15.37
2018-11-02T05:44:48.546Z,13.57
2018-11-02T05:47:17.680Z,12.17
2018-11-02T05:49:46.796Z,14.63
2018-11-02T05:52:15.646Z,16.33
2018-11-02T05:54:44.470Z,13.03
2018-11-02T05:57:19.696Z,11.83
2018-11-02T05:59:54.573Z,13.67
2018-11-02T06:02:29.398Z,14.03
2018-11-02T06:04:58.836Z,17.47
2018-11-02T06:07:27.621Z,14.00
2018-11-02T06:09:56.567Z,12.77
2018-11-02T06:12:25.351Z,13.80
2018-11-02T06:14:54.215Z,13.70
2018-11-02T06:17:28.981Z,12.67
2018-11-02T06:19:58.295Z,13.73
2018-11-02T06:22:27.116Z,15.37
2018-11-02T06:24:55.977Z,16.70
2018-11-02T06:27:24.792Z,14.10
2018-11-02T06:29:53.629Z,14.90
2018-11-02T06:32:22.455Z,16.63
2018-11-02T06:34:52.262Z,15.20
2018-11-02T06:37:21.037Z,15.43
2018-11-02T06:39:49.824Z,17.23
2018-11-02T06:42:18.704Z,17.90
2018-11-02T06:44:47.757Z,17.30
2018-11-02T06:47:16.655Z,15.37
2018-11-02T06:49:45.509Z,17.87
2018-11-02T06:52:14.344Z,18.07
2018-11-02T06:54:43.178Z,21.00
2018-11-02T06:57:12.136Z,18.90
2018-11-02T06:59:41.209Z,19.63
2018-11-02T07:02:09.840Z,19.37
2018-11-02T07:04:38.627Z,19.50
2018-11-02T07:07:13.441Z,22.03
2018-11-02T07:09:42.324Z,20.27
2018-11-02T07:12:11.210Z,20.50
2018-11-02T07:14:40.131Z,19.87
2018-11-02T07:17:09.004Z,17.37
2018-11-02T07:19:37.796Z,20.10
2018-11-02T07:22:07.050Z,16.90
2018-11-02T07:24:35.908Z,9.97
2018-11-02T07:27:04.853Z,9.73
2018-11-02T07:29:33.649Z,9.73
2018-11-02T07:32:02.596Z,9.00
2018-11-02T07:34:31.580Z,9.13
2018-11-02T07:37:00.332Z,12.73
2018-11-02T07:39:31.618Z,8.87
2018-11-02T07:42:00.712Z,10.73
2018-11-02T07:44:29.586Z,7.60
2018-11-02T07:46:59.024Z,8.43
2018-11-02T07:49:28.251Z,7.07
2018-11-02T07:51:57.048Z,6.90
2018-11-02T07:54:25.930Z,5.53
2018-11-02T07:56:55.661Z,6.70
2018-11-02T07:59:24.792Z,6.60
2018-11-02T08:01:53.654Z,5.80
2018-11-02T08:04:22.523Z,6.50
2018-11-02T08:06:51.365Z,8.30
2018-11-02T08:09:20.198Z,6.87
2018-11-02T08:11:49.056Z,6.47
2018-11-02T08:14:17.965Z,6.90
2018-11-02T08:16:46.740Z,6.50
2018-11-02T08:19:15.566Z,7.90
2018-11-02T08:21:44.360Z,4.90
2018-11-02T08:24:13.583Z,5.80
2018-11-02T08:26:42.390Z,7.73
2018-11-02T08:29:11.222Z,4.83
2018-11-02T08:31:40.002Z,6.00
2018-11-02T08:34:08.863Z,6.33
2018-11-02T08:36:37.689Z,7.63
2018-11-02T08:39:09.388Z,8.40
2018-11-02T08:41:38.254Z,8.67
2018-11-02T08:44:07.444Z,4.80
2018-11-02T08:46:36.425Z,3.83
2018-11-02T08:49:05.579Z,4.03
2018-11-02T08:51:34.472Z,4.03
2018-11-02T08:54:03.282Z,4.77
2018-11-02T08:56:32.199Z,4.47
2018-11-02T08:59:01.009Z,5.80
2018-11-02T09:01:30.027Z,3.13
2018-11-02T09:03:58.889Z,7.13
2018-11-02T09:06:28.083Z,3.70
2018-11-02T09:08:56.892Z,3.10
2018-11-02T09:11:25.776Z,4.27
2018-11-02T09:13:54.663Z,4.40
2018-11-02T09:16:24.434Z,3.57
2018-11-02T09:18:53.244Z,3.80
2018-11-02T09:21:22.113Z,3.50
2018-11-02T09:23:50.981Z,4.10
2018-11-02T09:26:19.916Z,3.40
2018-11-02T09:28:48.763Z,3.63
2018-11-02T09:31:17.989Z,3.37
2018-11-02T09:33:46.791Z,4.97
2018-11-02T09:36:15.936Z,2.17
2018-11-02T09:38:44.951Z,4.17
2018-11-02T09:41:14.134Z,5.07
2018-11-02T09:43:43.162Z,2.87
2018-11-02T09:46:11.992Z,6.57
2018-11-02T09:48:40.873Z,3.93
2018-11-02T09:51:09.827Z,6.37
2018-11-02T09:53:38.702Z,4.77
2018-11-02T09:56:07.510Z,10.00
2018-11-02T09:58:36.416Z,4.23
2018-11-02T10:01:05.705Z,5.80
2018-11-02T10:03:34.716Z,7.83
2018-11-02T10:06:03.939Z,4.57
2018-11-02T10:08:32.861Z,9.00
2018-11-02T10:11:01.736Z,4.67
2018-11-02T10:13:30.625Z,6.07
2018-11-02T10:15:59.526Z,6.20
2018-11-02T10:18:28.476Z,4.07
2018-11-02T10:20:57.360Z,3.17
2018-11-02T10:23:26.290Z,3.87
2018-11-02T10:25:55.331Z,3.83
2018-11-02T10:28:24.472Z,4.97
2018-11-02T10:30:53.444Z,4.90
2018-11-02T10:33:22.415Z,3.57
2018-11-02T10:35:52.240Z,4.17
2018-11-02T10:38:21.092Z,4.00
2018-11-02T10:40:55.561Z,3.63
2018-11-02T10:43:26.008Z,2.40
2018-11-02T10:45:59.006Z,4.87
2018-11-02T10:48:28.839Z,4.17
2018-11-02T10:50:58.380Z,4.03
2018-11-02T10:53:27.249Z,4.67
2018-11-02T10:55:56.125Z,8.77
2018-11-02T10:58:24.945Z,5.53
2018-11-02T11:00:59.335Z,2.00
2018-11-02T11:03:28.278Z,5.13
2018-11-02T11:05:57.520Z,3.63
2018-11-02T11:08:26.419Z,2.30
2018-11-02T11:10:55.341Z,2.73
2018-11-02T11:13:24.626Z,6.63
2018-11-02T11:15:53.186Z,5.93
2018-11-02T11:18:22.063Z,5.00
2018-11-02T11:20:51.023Z,4.37
2018-11-02T11:23:20.472Z,4.23
2018-11-02T11:25:49.918Z,5.27
2018-11-02T11:28:18.844Z,7.30
2018-11-02T11:30:48.641Z,2.63
2018-11-02T11:33:17.593Z,5.57
2018-11-02T11:35:46.468Z,9.77
2018-11-02T11:38:15.367Z,5.23
2018-11-02T11:40:44.381Z,3.50
2018-11-02T11:43:13.321Z,8.93
2018-11-02T11:45:42.254Z,4.30
2018-11-02T11:48:11.129Z,4.50
2018-11-02T11:50:40.075Z,6.17
2018-11-02T11:53:09.061Z,6.17
2018-11-02T11:55:38.320Z,4.13
2018-11-02T11:58:07.266Z,4.53
2018-11-02T12:00:36.157Z,7.23
2018-11-02T12:03:05.134Z,6.47
2018-11-02T12:05:34.041Z,6.83
2018-11-02T12:08:03.005Z,6.33
2018-11-02T12:10:31.937Z,5.50
2018-11-02T12:13:00.861Z,4.80
2018-11-02T12:15:30.080Z,4.30
2018-11-02T12:17:59.049Z,6.53
2018-11-02T12:20:29.255Z,5.90
2018-11-02T12:23:01.203Z,7.97
2018-11-02T12:25:30.183Z,5.37
2018-11-02T12:27:59.199Z,3.97
2018-11-02T12:30:28.082Z,6.73
2018-11-02T12:32:56.891Z,1.20
2018-11-02T12:35:25.805Z,2.80
2018-11-02T12:37:54.642Z,2.27
2018-11-02T12:40:24.558Z,9.17
2018-11-02T12:42:54.336Z,4.73
2018-11-02T12:45:23.534Z,6.27
2018-11-02T12:47:52.454Z,4.73
2018-11-02T12:50:25.545Z,3.30
2018-11-02T12:52:55.784Z,2.43
2018-11-02T12:55:24.797Z,3.17
2018-11-02T12:57:54.636Z,7.07
2018-11-02T13:00:25.603Z,6.13
2018-11-02T13:02:54.956Z,2.87
2018-11-02T13:05:23.967Z,4.43
2018-11-02T13:07:52.889Z,5.77
2018-11-02T13:10:22.680Z,5.50
2018-11-02T13:12:51.492Z,4.63
2018-11-02T13:15:21.799Z,7.07
2018-11-02T13:17:50.948Z,4.87
2018-11-02T13:20:19.944Z,2.97
2018-11-02T13:22:49.839Z,4.83
2018-11-02T13:25:19.951Z,4.80
2018-11-02T13:27:49.699Z,5.10
2018-11-02T13:30:18.759Z,3.60
2018-11-02T13:32:48.235Z,3.83
2018-11-02T13:35:18.512Z,6.90
2018-11-02T13:37:47.942Z,4.73
2018-11-02T13:40:17.721Z,3.87
2018-11-02T13:42:46.743Z,6.60
2018-11-02T13:45:21.718Z,5.03
2018-11-02T13:47:50.628Z,1.67
2018-11-02T13:50:19.602Z,4.37
2018-11-02T13:52:48.537Z,3.57
2018-11-02T13:55:17.353Z,2.43
2018-11-02T13:57:46.262Z,3.50
2018-11-02T14:00:16.673Z,3.03
2018-11-02T14:02:45.593Z,4.97
2018-11-02T14:05:15.589Z,5.07
2018-11-02T14:07:44.530Z,9.50
2018-11-02T14:10:13.764Z,18.00
2018-11-02T14:12:42.716Z,7.83
2018-11-02T14:15:12.862Z,7.70
2018-11-02T14:17:42.244Z,4.73
2018-11-02T14:20:12.372Z,6.37
2018-11-02T14:22:41.338Z,3.40
2018-11-02T14:25:13.205Z,3.97
2018-11-02T14:27:42.209Z,4.83
2018-11-02T14:30:13.000Z,3.00
2018-11-02T14:32:41.808Z,6.37
2018-11-02T14:35:10.711Z,4.20
2018-11-02T14:37:39.703Z,4.83
2018-11-02T14:40:09.776Z,4.73
2018-11-02T14:42:39.371Z,4.27
2018-11-02T14:45:15.264Z,4.20
2018-11-02T14:47:45.289Z,3.73
2018-11-02T14:50:14.283Z,6.60
2018-11-02T14:52:43.176Z,4.13
2018-11-02T14:55:12.073Z,4.13
2018-11-02T14:57:40.885Z,3.73
2018-11-02T15:00:11.097Z,2.90
2018-11-02T15:02:40.778Z,3.07
2018-11-02T15:05:11.123Z,3.20
2018-11-02T15:07:40.416Z,4.27
2018-11-02T15:10:09.393Z,2.43
2018-11-02T15:12:38.668Z,1.67
2018-11-02T15:15:08.440Z,6.17
2018-11-02T15:17:37.344Z,4.90
2018-11-02T15:20:09.809Z,1.53
2018-11-02T15:22:38.669Z,6.53
2018-11-02T15:25:07.974Z,5.40
2018-11-02T15:27:37.036Z,6.57
2018-11-02T15:30:09.342Z,3.80
2018-11-02T15:32:38.131Z,10.67
2018-11-02T15:35:08.082Z,2.03
2018-11-02T15:37:36.972Z,3.90
2018-11-02T15:40:07.845Z,3.47
2018-11-02T15:42:36.753Z,4.30
2018-11-02T15:45:08.680Z,7.70
2018-11-02T15:47:37.644Z,5.03
2018-11-02T15:50:08.125Z,3.57
2018-11-02T15:52:37.638Z,5.30
2018-11-02T15:55:07.815Z,3.90
2018-11-02T15:57:36.946Z,4.23
2018-11-02T16:00:11.433Z,7.07
2018-11-02T16:02:40.355Z,3.17
2018-11-02T16:05:09.684Z,4.47
2018-11-02T16:07:38.749Z,4.37
2018-11-02T16:10:09.242Z,8.53
2018-11-02T16:12:38.149Z,3.43
2018-11-02T16:15:08.473Z,2.63
2018-11-02T16:17:37.691Z,3.20
2018-11-02T16:20:09.161Z,4.63
2018-11-02T16:22:38.047Z,4.53
2018-11-02T16:25:07.193Z,2.87
2018-11-02T16:27:36.173Z,4.80
2018-11-02T16:30:05.376Z,5.47
2018-11-02T16:32:34.221Z,4.80
2018-11-02T16:35:04.063Z,7.10
2018-11-02T16:37:32.976Z,4.73
2018-11-02T16:40:01.852Z,4.73
2018-11-02T16:42:30.712Z,6.87
2018-11-02T16:45:08.510Z,4.60
2018-11-02T16:47:37.600Z,6.10
2018-11-02T16:50:08.200Z,4.17
2018-11-02T16:52:37.018Z,7.30
2018-11-02T16:55:06.261Z,3.80
2018-11-02T16:57:35.167Z,10.77
2018-11-02T17:00:07.232Z,6.00
2018-11-02T17:02:36.167Z,5.57
2018-11-02T17:05:07.676Z,3.10
2018-11-02T17:07:36.364Z,4.77
2018-11-02T17:10:06.759Z,2.37
2018-11-02T17:12:35.622Z,6.27
2018-11-02T17:15:04.697Z,6.63
2018-11-02T17:17:35.812Z,6.07
2018-11-02T17:20:07.203Z,7.93
2018-11-02T17:22:37.007Z,7.53
2018-11-02T17:25:07.108Z,4.80
2018-11-02T17:27:36.395Z,5.67
2018-11-02T17:30:07.227Z,10.10
2018-11-02T17:32:35.999Z,12.53
2018-11-02T17:35:05.008Z,13.03
2018-11-02T17:37:34.111Z,12.53
2018-11-02T17:40:03.005Z,13.80
2018-11-02T17:42:31.886Z,11.30
2018-11-02T17:45:07.687Z,12.57
2018-11-02T17:47:37.737Z,9.93
2018-11-02T17:50:08.141Z,11.27
2018-11-02T17:52:36.959Z,7.50
2018-11-02T17:55:05.797Z,12.57
2018-11-02T17:57:34.744Z,9.63
2018-11-02T18:00:04.774Z,10.00
2018-11-02T18:02:33.669Z,8.47
2018-11-02T18:05:02.548Z,7.80
2018-11-02T18:07:31.410Z,6.73
2018-11-02T18:10:00.221Z,7.20
2018-11-02T18:12:29.177Z,9.00
2018-11-02T18:14:58.027Z,6.77
2018-11-02T18:17:26.903Z,5.43
2018-11-02T18:19:55.683Z,5.03
2018-11-02T18:22:24.611Z,5.90
2018-11-02T18:24:53.457Z,5.63
2018-11-02T18:27:22.355Z,7.77
2018-11-02T18:29:51.147Z,8.73
2018-11-02T18:32:20.019Z,7.33
2018-11-02T18:34:48.855Z,7.03
2018-11-02T18:37:17.800Z,7.43
2018-11-02T18:39:46.752Z,10.47
2018-11-02T18:42:15.635Z,7.90
2018-11-02T18:44:44.443Z,8.70
2018-11-02T18:47:13.313Z,9.40
2018-11-02T18:49:42.211Z,10.13
2018-11-02T18:52:11.200Z,14.77
2018-11-02T18:54:40.167Z,10.83
2018-11-02T18:57:09.629Z,9.90
2018-11-02T18:59:38.987Z,10.20
2018-11-02T19:02:07.904Z,8.80
2018-11-02T19:04:36.797Z,10.70
2018-11-02T19:07:05.830Z,8.80
2018-11-02T19:09:34.676Z,10.87
2018-11-02T19:12:04.502Z,11.53
2018-11-02T19:14:33.934Z,12.80
2018-11-02T19:17:02.906Z,13.50
2018-11-02T19:19:31.759Z,7.10
2018-11-02T19:22:00.581Z,9.33
2018-11-02T19:24:29.420Z,7.53
2018-11-02T19:26:58.340Z,8.77
2018-11-02T19:29:27.406Z,10.50
2018-11-02T19:31:56.211Z,9.23
2018-11-02T19:34:25.482Z,8.00
2018-11-02T19:36:54.591Z,8.80
2018-11-02T19:39:23.636Z,6.10
2018-11-02T19:41:52.429Z,6.83
2018-11-02T19:44:21.911Z,6.83
2018-11-02T19:46:50.867Z,9.77
2018-11-02T19:49:19.767Z,9.90
2018-11-02T19:51:48.723Z,9.13
2018-11-02T19:54:18.246Z,9.73
2018-11-02T19:56:47.367Z,8.70
2018-11-02T19:59:17.260Z,12.07
2018-11-02T20:01:46.422Z,8.77
2018-11-02T20:04:15.942Z,8.53
2018-11-02T20:06:45.094Z,5.97
2018-11-02T20:09:14.036Z,6.77
2018-11-02T20:11:43.306Z,7.87
2018-11-02T20:14:12.760Z,5.43
2018-11-02T20:16:42.243Z,6.97
2018-11-02T20:19:11.884Z,5.53
2018-11-02T20:21:40.658Z,8.07
2018-11-02T20:24:10.124Z,8.60
2018-11-02T20:26:41.755Z,10.80
2018-11-02T20:29:11.284Z,8.43
2018-11-02T20:31:40.595Z,4.77
2018-11-02T20:34:09.432Z,6.47
2018-11-02T20:36:38.845Z,5.27
2018-11-02T20:39:10.700Z,7.43
2018-11-02T20:41:40.196Z,6.43
2018-11-02T20:44:09.276Z,7.57
2018-11-02T20:46:38.192Z,5.17
2018-11-02T20:49:07.330Z,5.03
2018-11-02T20:51:36.677Z,5.87
2018-11-02T20:54:05.994Z,7.13
2018-11-02T20:56:35.002Z,4.30
2018-11-02T20:59:04.102Z,5.80
2018-11-02T21:01:33.259Z,6.20
2018-11-02T21:04:02.148Z,4.97
2018-11-02T21:06:30.970Z,5.47
2018-11-02T21:09:00.231Z,5.30
2018-11-02T21:11:28.832Z,9.33
2018-11-02T21:13:57.984Z,8.73
2018-11-02T21:16:26.865Z,7.73
2018-11-02T21:18:55.688Z,5.63
2018-11-02T21:21:24.504Z,6.53
2018-11-02T21:23:53.369Z,7.70
2018-11-02T21:26:22.237Z,12.10
2018-11-02T21:28:51.191Z,10.57
2018-11-02T21:31:20.039Z,6.63
2018-11-02T21:33:48.928Z,6.70
2018-11-02T21:36:17.746Z,8.97
2018-11-02T21:38:46.682Z,7.20
2018-11-02T21:41:15.464Z,5.70
2018-11-02T21:43:44.436Z,8.37
2018-11-02T21:46:13.355Z,9.40
2018-11-02T21:48:42.195Z,5.33
2018-11-02T21:51:11.075Z,8.87
2018-11-02T21:53:40.882Z,8.20
2018-11-02T21:56:09.795Z,7.33
2018-11-02T21:58:38.657Z,5.50
2018-11-02T22:01:07.787Z,6.77
2018-11-02T22:03:36.868Z,5.87
2018-11-02T22:06:05.856Z,7.47
2018-11-02T22:08:34.871Z,8.37
2018-11-02T22:11:04.108Z,7.33
2018-11-02T22:13:32.913Z,7.77
2018-11-02T22:16:01.814Z,9.30
2018-11-02T22:18:30.668Z,9.13
2018-11-02T22:20:59.764Z,11.73
2018-11-02T22:23:28.665Z,6.97
2018-11-02T22:25:57.585Z,7.80
2018-11-02T22:28:26.750Z,11.67
2018-11-02T22:30:55.653Z,8.33
2018-11-02T22:33:24.970Z,9.03
2018-11-02T22:35:53.821Z,10.77
2018-11-02T22:38:22.669Z,9.03
2018-11-02T22:40:51.539Z,10.43
2018-11-02T22:43:20.347Z,10.87
2018-11-02T22:45:52.294Z,8.43
2018-11-02T22:48:24.003Z,8.40
2018-11-02T22:50:54.441Z,7.17
2018-11-02T22:53:23.479Z,7.30
2018-11-02T22:55:52.608Z,10.83
2018-11-02T22:58:21.894Z,7.37
2018-11-02T23:00:56.232Z,11.00
2018-11-02T23:03:25.096Z,8.97
2018-11-02T23:05:54.019Z,8.50
2018-11-02T23:08:23.167Z,8.43
2018-11-02T23:10:52.002Z,13.63
2018-11-02T23:13:20.880Z,10.03
2018-11-02T23:15:49.719Z,7.70
2018-11-02T23:18:19.232Z,10.03
2018-11-02T23:20:48.684Z,8.60
2018-11-02T23:23:17.864Z,9.27
2018-11-02T23:25:46.639Z,11.87
2018-11-02T23:28:15.511Z,12.27
2018-11-02T23:30:44.423Z,11.07
2018-11-02T23:33:13.758Z,8.17
2018-11-02T23:35:42.899Z,6.97
2018-11-02T23:38:11.778Z,8.00
2018-11-02T23:40:40.584Z,9.03
2018-11-02T23:43:09.548Z,6.93
2018-11-02T23:45:38.343Z,8.67
2018-11-02T23:48:12.606Z,9.67
2018-11-02T23:50:41.477Z,11.60
2018-11-02T23:53:10.587Z,8.93
2018-11-02T23:55:39.418Z,7.83
2018-11-02T23:58:08.354Z,9.37
